Time;durP1;ratioP1;P1;durP2;ratioP2;P2;SDS_P1;SDS_P2;PMS_P1;PMS_P2;Temp;Humidity;BMP_temperature;BMP_pressure;BME280_temperature;BME280_humidity;BME280_pressure;Samples;Min_cycle;Max_cycle;Signal;HPM_P1;HPM_P2
2022/03/27 00:02:09;;;;;;;27.27;13.90;;;9.60;99.90;;;;;;4988890;28;20656;-83
2022/03/27 00:04:36;;;;;;;22.77;12.67;;;9.60;99.90;;;;;;5008482;28;20222;-82
2022/03/27 00:07:03;;;;;;;25.23;12.90;;;9.50;99.90;;;;;;5008229;28;20218;-84
2022/03/27 00:09:30;;;;;;;24.33;13.13;;;9.50;99.90;;;;;;5008646;28;20662;-83
2022/03/27 00:11:59;;;;;;;24.03;13.23;;;9.50;99.90;;;;;;5012416;28;20250;-83
2022/03/27 00:14:26;;;;;;;28.60;13.37;;;9.40;99.90;;;;;;5005008;28;20310;-85
2022/03/27 00:16:53;;;;;;;28.53;13.97;;;9.40;99.90;;;;;;4997589;28;20219;-84
2022/03/27 00:19:20;;;;;;;29.63;13.90;;;9.40;99.90;;;;;;5007123;28;20257;-84
2022/03/27 00:21:47;;;;;;;28.83;12.93;;;9.40;99.90;;;;;;4990114;28;20233;-85
2022/03/27 00:24:14;;;;;;;28.33;14.67;;;9.50;99.90;;;;;;5005713;28;20202;-84
2022/03/27 00:26:42;;;;;;;28.73;13.77;;;9.30;99.90;;;;;;4993365;28;20276;-84
2022/03/27 00:29:09;;;;;;;24.70;13.50;;;9.40;99.90;;;;;;5002428;28;20662;-83
2022/03/27 00:31:37;;;;;;;27.13;14.40;;;9.30;99.90;;;;;;5013045;28;20261;-84
2022/03/27 00:34:06;;;;;;;27.17;13.40;;;9.30;99.90;;;;;;4987414;28;20210;-82
2022/03/27 00:36:33;;;;;;;26.43;13.83;;;9.30;99.90;;;;;;5007864;28;20982;-83
2022/03/27 00:38:59;;;;;;;27.80;13.87;;;9.30;99.90;;;;;;5008342;28;20558;-83
2022/03/27 00:41:26;;;;;;;24.30;12.67;;;9.30;99.90;;;;;;5020780;28;20284;-80
2022/03/27 00:43:53;;;;;;;23.70;12.47;;;9.30;99.90;;;;;;5017681;28;20216;-83
2022/03/27 00:46:21;;;;;;;21.40;11.43;;;9.30;99.90;;;;;;5000823;28;20276;-85
2022/03/27 00:48:48;;;;;;;19.40;11.23;;;9.30;99.90;;;;;;5005184;28;20218;-83
2022/03/27 00:51:15;;;;;;;17.43;9.77;;;9.30;99.90;;;;;;5016354;28;20220;-84
2022/03/27 00:53:42;;;;;;;17.30;9.50;;;9.30;99.90;;;;;;4999432;28;20289;-84
2022/03/27 00:56:09;;;;;;;18.93;10.47;;;9.30;99.90;;;;;;5011936;28;20206;-83
2022/03/27 00:58:36;;;;;;;19.30;10.40;;;9.30;99.90;;;;;;4996461;28;20240;-84
2022/03/27 01:01:31;;;;;;;22.60;11.00;;;9.30;99.90;;;;;;5015668;28;20246;-83
2022/03/27 01:03:58;;;;;;;23.33;10.63;;;9.30;99.90;;;;;;5006267;28;20229;-83
2022/03/27 01:06:33;;;;;;;18.70;10.10;;;9.20;99.90;;;;;;4983875;28;20228;-84
2022/03/27 01:11:49;;;;;;;16.27;8.60;;;9.30;99.90;;;;;;5004241;28;20301;-83
2022/03/27 01:14:22;;;;;;;19.20;9.37;;;9.30;99.90;;;;;;5004460;28;20325;-83
2022/03/27 01:17:08;;;;;;;17.73;8.93;;;9.20;99.90;;;;;;5004192;28;20313;-82
2022/03/27 01:19:48;;;;;;;19.77;10.43;;;9.10;99.90;;;;;;4989636;28;20298;-85
2022/03/27 01:22:16;;;;;;;19.43;10.03;;;9.10;99.90;;;;;;5005102;28;20322;-82
2022/03/27 01:24:45;;;;;;;18.27;9.40;;;9.10;99.90;;;;;;5006848;28;20206;-83
2022/03/27 01:27:12;;;;;;;19.50;9.80;;;9.00;99.90;;;;;;5005998;28;20268;-84
2022/03/27 01:29:39;;;;;;;20.13;10.57;;;9.00;99.90;;;;;;4990889;28;20208;-84
2022/03/27 01:32:08;;;;;;;19.60;10.57;;;9.00;99.90;;;;;;4999390;28;20231;-84
2022/03/27 01:34:36;;;;;;;21.63;10.67;;;9.00;99.90;;;;;;4991019;28;20596;-83
2022/03/27 01:37:07;;;;;;;20.30;10.37;;;8.90;99.90;;;;;;4982553;28;20280;-84
2022/03/27 01:39:35;;;;;;;21.53;11.07;;;8.90;99.90;;;;;;5006088;28;20210;-86
2022/03/27 01:42:04;;;;;;;22.47;11.30;;;8.90;99.90;;;;;;4993606;28;20311;-84
2022/03/27 01:44:31;;;;;;;26.27;11.13;;;8.90;99.90;;;;;;4992839;28;20709;-83
2022/03/27 01:46:59;;;;;;;19.27;10.47;;;8.90;99.90;;;;;;5009121;28;20305;-84
2022/03/27 01:49:26;;;;;;;20.23;10.50;;;8.90;99.90;;;;;;5002051;28;20640;-84
2022/03/27 01:51:53;;;;;;;20.27;9.63;;;8.90;99.90;;;;;;4991413;28;20209;-83
2022/03/27 01:54:22;;;;;;;18.97;9.17;;;9.00;99.90;;;;;;4994564;28;20211;-83
2022/03/27 01:56:49;;;;;;;21.97;10.43;;;8.80;99.90;;;;;;5005895;28;20650;-84
2022/03/27 01:59:16;;;;;;;19.27;10.00;;;8.80;99.90;;;;;;5013644;28;20634;-83
2022/03/27 02:01:45;;;;;;;21.23;9.93;;;8.80;99.90;;;;;;5000394;28;20226;-83
2022/03/27 02:04:13;;;;;;;16.90;9.50;;;8.70;99.90;;;;;;5006724;28;20450;-83
2022/03/27 02:06:40;;;;;;;18.47;10.23;;;8.70;99.90;;;;;;5004022;28;20264;-84
2022/03/27 02:09:07;;;;;;;19.23;9.83;;;8.70;99.90;;;;;;5025676;28;20204;-84
2022/03/27 02:11:33;;;;;;;19.47;9.67;;;8.70;99.90;;;;;;5008023;28;20209;-83
2022/03/27 02:14:00;;;;;;;18.07;9.27;;;8.70;99.90;;;;;;5028257;28;20228;-83
2022/03/27 02:16:27;;;;;;;18.40;10.00;;;8.80;99.90;;;;;;5009537;28;20283;-83
2022/03/27 02:18:56;;;;;;;17.63;9.60;;;8.80;99.90;;;;;;5009985;28;20285;-83
2022/03/27 02:21:23;;;;;;;20.20;9.97;;;8.80;99.90;;;;;;5018356;28;20221;-83
2022/03/27 02:23:50;;;;;;;19.17;9.90;;;8.70;99.90;;;;;;5021797;28;20630;-82
2022/03/27 02:26:16;;;;;;;19.30;9.60;;;8.80;99.90;;;;;;5022369;28;20295;-83
2022/03/27 02:28:44;;;;;;;19.47;9.17;;;8.70;99.90;;;;;;5016447;28;20232;-83
2022/03/27 02:31:11;;;;;;;21.17;9.47;;;8.70;99.90;;;;;;5008413;28;20317;-84
2022/03/27 02:33:38;;;;;;;16.93;8.97;;;8.70;99.90;;;;;;4989716;28;20245;-83
2022/03/27 02:36:08;;;;;;;22.93;10.13;;;8.60;99.90;;;;;;5002999;28;20238;-84
2022/03/27 02:38:35;;;;;;;22.00;10.63;;;8.70;99.90;;;;;;5012800;28;20237;-84
2022/03/27 02:41:04;;;;;;;19.57;9.97;;;8.70;99.90;;;;;;4995556;28;20208;-84
2022/03/27 02:43:31;;;;;;;24.47;10.60;;;8.70;99.90;;;;;;5019968;28;20209;-84
2022/03/27 02:45:58;;;;;;;21.70;10.43;;;8.60;99.90;;;;;;5014218;28;20415;-83
2022/03/27 02:48:25;;;;;;;27.23;12.17;;;8.50;99.90;;;;;;5007442;28;20822;-84
2022/03/27 02:50:52;;;;;;;28.77;12.13;;;8.50;99.90;;;;;;4990659;28;20249;-83
2022/03/27 02:53:20;;;;;;;24.57;11.27;;;8.50;99.90;;;;;;5003041;28;21075;-83
2022/03/27 02:55:47;;;;;;;23.77;10.30;;;8.50;99.90;;;;;;5019690;28;20240;-83
2022/03/27 02:58:16;;;;;;;25.77;11.47;;;8.40;99.90;;;;;;5018339;28;20233;-83
2022/03/27 03:00:43;;;;;;;25.67;10.23;;;8.40;99.90;;;;;;5026356;28;20224;-82
2022/03/27 03:03:12;;;;;;;25.60;11.43;;;8.40;99.90;;;;;;5003582;28;20655;-82
2022/03/27 03:05:42;;;;;;;22.90;10.40;;;8.40;99.90;;;;;;4999938;28;20237;-82
2022/03/27 03:08:18;;;;;;;21.70;10.60;;;8.40;99.90;;;;;;5016222;28;20635;-82
2022/03/27 03:10:45;;;;;;;23.67;10.47;;;8.40;99.90;;;;;;5001494;28;20236;-83
2022/03/27 03:13:12;;;;;;;21.53;10.63;;;8.30;99.90;;;;;;5004662;28;20642;-83
2022/03/27 03:15:42;;;;;;;25.60;10.80;;;8.30;99.90;;;;;;4996969;28;20227;-83
2022/03/27 03:18:10;;;;;;;25.37;11.33;;;8.30;99.90;;;;;;4998788;28;20243;-83
2022/03/27 03:20:39;;;;;;;24.53;10.03;;;8.20;99.90;;;;;;4991715;28;20609;-83
2022/03/27 03:23:08;;;;;;;26.03;10.53;;;8.20;99.90;;;;;;5017786;28;20306;-81
2022/03/27 03:25:34;;;;;;;27.83;11.00;;;8.10;99.90;;;;;;5012279;28;20291;-82
2022/03/27 03:28:22;;;;;;;26.37;11.60;;;8.00;99.90;;;;;;4994154;28;20309;-83
2022/03/27 03:30:48;;;;;;;29.83;11.87;;;7.90;99.90;;;;;;4994447;28;20251;-83
2022/03/27 03:33:16;;;;;;;31.20;11.87;;;7.90;99.90;;;;;;5009639;28;20274;-83
2022/03/27 03:35:43;;;;;;;27.40;11.40;;;8.00;99.90;;;;;;5002837;28;20346;-83
2022/03/27 03:38:10;;;;;;;27.90;11.47;;;7.90;99.90;;;;;;5006129;28;20649;-83
2022/03/27 03:40:37;;;;;;;30.30;12.33;;;7.80;99.90;;;;;;5011906;28;20286;-83
2022/03/27 03:43:04;;;;;;;30.03;12.00;;;7.80;99.90;;;;;;4993743;28;20234;-82
2022/03/27 03:45:31;;;;;;;33.73;12.93;;;7.70;99.90;;;;;;4996404;28;20342;-83
2022/03/27 03:47:59;;;;;;;31.83;13.00;;;7.70;99.90;;;;;;5009538;28;20220;-83
2022/03/27 03:50:27;;;;;;;36.90;12.53;;;7.70;99.90;;;;;;5010673;28;20230;-84
2022/03/27 03:52:54;;;;;;;32.80;12.90;;;7.70;99.90;;;;;;4995055;28;20236;-83
2022/03/27 03:55:21;;;;;;;29.60;11.10;;;7.70;99.90;;;;;;4995076;28;20230;-83
2022/03/27 03:57:48;;;;;;;31.63;13.10;;;7.60;99.90;;;;;;5003652;28;20615;-83
2022/03/27 04:00:15;;;;;;;29.23;12.03;;;7.60;99.90;;;;;;5017673;28;20259;-83
2022/03/27 04:02:42;;;;;;;31.30;12.77;;;7.60;99.90;;;;;;4988004;28;20233;-83
2022/03/27 04:05:09;;;;;;;29.17;12.37;;;7.60;99.90;;;;;;5007397;28;20214;-82
2022/03/27 04:07:36;;;;;;;29.60;11.30;;;7.60;99.90;;;;;;4988204;28;20238;-81
2022/03/27 04:10:04;;;;;;;30.97;11.90;;;7.60;99.90;;;;;;4990664;28;21066;-82
2022/03/27 04:12:31;;;;;;;34.13;11.97;;;7.60;99.90;;;;;;4988382;28;20265;-81
2022/03/27 04:14:58;;;;;;;28.93;11.27;;;7.60;99.90;;;;;;5007982;28;20693;-82
2022/03/27 04:17:25;;;;;;;29.33;11.97;;;7.60;99.90;;;;;;5003272;28;20750;-82
2022/03/27 04:19:52;;;;;;;24.77;12.03;;;7.70;99.90;;;;;;4989252;28;20239;-83
2022/03/27 04:22:19;;;;;;;27.00;11.93;;;7.70;99.90;;;;;;5009487;28;20312;-83
2022/03/27 04:24:47;;;;;;;29.40;12.47;;;7.70;99.90;;;;;;5008475;28;20206;-83
2022/03/27 04:27:14;;;;;;;27.47;12.27;;;7.70;99.90;;;;;;5008823;28;20208;-83
2022/03/27 04:29:41;;;;;;;24.30;11.33;;;7.70;99.90;;;;;;5013589;28;20674;-83
2022/03/27 04:32:08;;;;;;;26.50;11.13;;;7.70;99.90;;;;;;5008955;28;20350;-82
2022/03/27 04:34:35;;;;;;;24.63;10.93;;;7.70;99.90;;;;;;4990793;28;20246;-82
2022/03/27 04:37:03;;;;;;;22.17;10.63;;;7.70;99.90;;;;;;5002722;28;20247;-82
2022/03/27 04:39:30;;;;;;;22.13;10.27;;;7.70;99.90;;;;;;5010081;28;20219;-82
2022/03/27 04:41:57;;;;;;;22.13;10.07;;;7.90;99.90;;;;;;4988138;28;20274;-82
2022/03/27 04:44:23;;;;;;;23.80;10.77;;;7.70;99.90;;;;;;4991032;28;20275;-82
2022/03/27 04:46:50;;;;;;;20.00;9.80;;;7.70;99.90;;;;;;4988398;28;20242;-83
2022/03/27 04:49:27;;;;;;;19.57;10.23;;;7.60;99.90;;;;;;5006441;28;20230;-83
2022/03/27 04:51:55;;;;;;;22.93;10.07;;;7.60;99.90;;;;;;5009111;28;20246;-82
2022/03/27 04:54:21;;;;;;;20.87;9.17;;;7.50;99.90;;;;;;5015861;28;20285;-82
2022/03/27 04:56:48;;;;;;;17.30;8.77;;;7.50;99.90;;;;;;5019563;28;20212;-84
2022/03/27 04:59:15;;;;;;;22.13;10.20;;;7.50;99.90;;;;;;5014420;28;20215;-84
2022/03/27 05:01:43;;;;;;;18.97;8.87;;;7.40;99.90;;;;;;5015614;28;20286;-82
2022/03/27 05:04:10;;;;;;;20.87;9.73;;;7.40;99.90;;;;;;5012492;28;20210;-83
2022/03/27 05:06:40;;;;;;;20.03;10.07;;;7.30;99.90;;;;;;5012006;28;20248;-82
2022/03/27 05:09:07;;;;;;;20.60;9.77;;;7.30;99.90;;;;;;5019369;28;20253;-84
2022/03/27 05:11:34;;;;;;;22.27;9.80;;;7.20;99.90;;;;;;5006438;28;20221;-84
2022/03/27 05:14:00;;;;;;;19.57;9.90;;;7.20;99.90;;;;;;5007860;28;20276;-83
2022/03/27 05:16:31;;;;;;;21.73;9.93;;;7.20;99.90;;;;;;5018550;28;20218;-84
2022/03/27 05:18:58;;;;;;;21.27;10.43;;;7.30;99.90;;;;;;4997941;28;20217;-83
2022/03/27 05:21:26;;;;;;;22.00;10.80;;;7.20;99.90;;;;;;5015183;28;20694;-83
2022/03/27 05:23:52;;;;;;;19.83;9.53;;;7.10;99.90;;;;;;5020429;28;20246;-83
2022/03/27 05:26:19;;;;;;;22.33;10.63;;;7.10;99.90;;;;;;5019307;28;20213;-84
2022/03/27 05:28:46;;;;;;;23.83;10.07;;;7.10;99.90;;;;;;4999435;28;20258;-84
2022/03/27 05:31:13;;;;;;;20.70;10.53;;;7.10;99.90;;;;;;5011573;28;21092;-83
2022/03/27 05:33:40;;;;;;;21.47;10.10;;;7.10;99.90;;;;;;5002732;28;20281;-83
2022/03/27 05:36:08;;;;;;;24.47;10.40;;;7.10;99.90;;;;;;5009816;28;20273;-83
2022/03/27 05:38:39;;;;;;;21.47;10.47;;;7.10;99.90;;;;;;5018108;28;20245;-82
2022/03/27 05:41:09;;;;;;;23.30;10.27;;;7.10;99.90;;;;;;4993617;28;20556;-83
2022/03/27 05:43:36;;;;;;;25.37;11.77;;;7.00;99.90;;;;;;5000335;28;20214;-84
2022/03/27 05:46:03;;;;;;;24.03;11.40;;;7.10;99.90;;;;;;5006420;28;20242;-84
2022/03/27 05:48:35;;;;;;;25.07;12.37;;;7.10;99.90;;;;;;5001760;28;20290;-83
2022/03/27 05:51:03;;;;;;;24.67;12.33;;;7.10;99.90;;;;;;5005259;28;20786;-83
2022/03/27 05:53:31;;;;;;;29.67;13.07;;;7.10;99.90;;;;;;5003959;28;20647;-81
2022/03/27 05:55:59;;;;;;;39.93;16.20;;;7.10;99.90;;;;;;4995191;28;20327;-83
2022/03/27 05:58:27;;;;;;;54.23;20.13;;;7.10;99.90;;;;;;5010891;28;20211;-84
2022/03/27 06:00:54;;;;;;;69.33;25.97;;;7.10;99.90;;;;;;4996985;28;20819;-84
2022/03/27 06:03:21;;;;;;;82.10;28.67;;;7.10;99.90;;;;;;4991355;28;20208;-83
2022/03/27 06:05:48;;;;;;;80.80;29.47;;;7.10;99.90;;;;;;4991294;28;20528;-84
2022/03/27 06:08:14;;;;;;;74.90;30.60;;;7.20;99.90;;;;;;5002419;28;20208;-85
2022/03/27 06:10:41;;;;;;;84.20;31.10;;;7.20;99.90;;;;;;5009583;28;20615;-84
2022/03/27 06:13:10;;;;;;;73.93;29.43;;;7.30;99.90;;;;;;5002606;28;20640;-84
2022/03/27 06:15:37;;;;;;;82.40;32.30;;;7.30;99.90;;;;;;5008693;28;20231;-84
2022/03/27 06:18:07;;;;;;;80.27;32.53;;;7.30;99.90;;;;;;4991311;28;20683;-84
2022/03/27 06:20:34;;;;;;;82.87;34.03;;;7.40;99.90;;;;;;5004244;28;20580;-84
2022/03/27 06:23:01;;;;;;;82.87;34.17;;;7.40;99.90;;;;;;5007484;28;20290;-83
2022/03/27 06:25:30;;;;;;;80.80;33.40;;;7.40;99.90;;;;;;5009502;28;20290;-84
2022/03/27 06:27:57;;;;;;;85.27;34.13;;;7.40;99.90;;;;;;4993246;28;20291;-84
2022/03/27 06:30:27;;;;;;;81.00;35.30;;;7.40;99.90;;;;;;4995834;28;20261;-84
2022/03/27 06:33:00;;;;;;;82.87;35.90;;;7.40;99.90;;;;;;4994327;28;20214;-84
2022/03/27 06:35:27;;;;;;;70.90;32.40;;;7.50;99.90;;;;;;5003758;28;20231;-84
2022/03/27 06:37:54;;;;;;;60.67;27.77;;;7.50;99.90;;;;;;4991122;28;20303;-83
2022/03/27 06:40:21;;;;;;;54.10;27.67;;;7.50;99.90;;;;;;5007035;28;20297;-83
2022/03/27 06:42:49;;;;;;;63.17;29.10;;;7.60;99.90;;;;;;4991606;28;20225;-84
2022/03/27 06:45:18;;;;;;;56.03;27.53;;;7.60;99.90;;;;;;5007793;28;20323;-84
2022/03/27 06:47:46;;;;;;;60.43;28.53;;;7.70;99.90;;;;;;5009663;28;20629;-84
2022/03/27 06:50:16;;;;;;;56.77;28.50;;;7.80;99.90;;;;;;5018928;28;20196;-84
2022/03/27 06:52:44;;;;;;;60.57;28.30;;;7.80;99.90;;;;;;4995282;28;20245;-84
2022/03/27 06:55:11;;;;;;;52.23;25.10;;;7.80;99.90;;;;;;5011985;28;20282;-82
2022/03/27 06:57:39;;;;;;;51.50;25.53;;;7.90;99.90;;;;;;4995155;28;20650;-83
2022/03/27 07:03:06;;;;;;;45.67;22.53;;;8.00;99.90;;;;;;5005845;28;20195;-83
2022/03/27 07:05:36;;;;;;;36.30;17.70;;;8.00;99.90;;;;;;5007907;28;20210;-83
2022/03/27 07:08:07;;;;;;;39.13;18.00;;;8.00;99.90;;;;;;4992976;28;20671;-83
2022/03/27 07:10:37;;;;;;;37.90;18.80;;;8.00;99.90;;;;;;5003824;28;20295;-83
2022/03/27 07:13:08;;;;;;;38.10;19.53;;;8.10;99.90;;;;;;5006607;28;20211;-84
2022/03/27 07:15:36;;;;;;;40.33;20.07;;;8.10;99.90;;;;;;5008360;28;20520;-84
2022/03/27 07:18:03;;;;;;;37.00;18.30;;;8.10;99.90;;;;;;4991877;28;20213;-85
2022/03/27 07:20:32;;;;;;;38.33;18.40;;;8.10;99.90;;;;;;5008452;28;20322;-83
2022/03/27 07:23:08;;;;;;;39.57;18.17;;;8.10;99.90;;;;;;4994761;28;20299;-82
2022/03/27 07:25:36;;;;;;;34.83;15.83;;;8.10;99.90;;;;;;5007675;28;20683;-83
2022/03/27 07:28:05;;;;;;;30.13;15.03;;;8.10;99.90;;;;;;4989717;28;20204;-85
2022/03/27 07:30:32;;;;;;;30.90;14.07;;;8.20;99.90;;;;;;5006339;28;20266;-82
2022/03/27 07:32:59;;;;;;;32.00;12.33;;;8.10;99.90;;;;;;5006439;28;20234;-82
2022/03/27 07:35:27;;;;;;;22.40;10.80;;;8.30;99.90;;;;;;5010711;28;20257;-84
2022/03/27 07:37:54;;;;;;;24.40;11.60;;;8.30;99.90;;;;;;5000131;28;20225;-82
2022/03/27 07:40:21;;;;;;;25.17;11.27;;;8.30;99.90;;;;;;5003734;28;20689;-85
2022/03/27 07:42:50;;;;;;;25.73;10.03;;;8.30;99.90;;;;;;5008934;28;20607;-84
2022/03/27 07:45:20;;;;;;;26.70;10.30;;;8.30;99.90;;;;;;5007765;28;20540;-84
2022/03/27 07:47:48;;;;;;;22.50;10.17;;;8.40;99.90;;;;;;5008101;28;20308;-84
2022/03/27 07:50:16;;;;;;;24.53;10.57;;;8.40;99.90;;;;;;5011419;28;20230;-82
2022/03/27 07:52:44;;;;;;;26.47;11.03;;;8.50;99.90;;;;;;5012315;28;20233;-84
2022/03/27 07:55:14;;;;;;;29.00;10.17;;;8.60;99.90;;;;;;5011255;28;20297;-83
2022/03/27 07:57:43;;;;;;;26.73;10.20;;;8.80;99.90;;;;;;5012666;28;20261;-84
2022/03/27 08:00:11;;;;;;;25.90;10.50;;;8.90;99.90;;;;;;5009894;28;20264;-83
2022/03/27 08:02:39;;;;;;;25.87;11.97;;;9.10;99.90;;;;;;5011034;28;20644;-84
2022/03/27 08:05:07;;;;;;;25.17;10.97;;;9.30;99.90;;;;;;4989634;28;20210;-83
2022/03/27 08:07:34;;;;;;;28.40;11.30;;;9.30;99.90;;;;;;5009010;28;20206;-83
2022/03/27 08:10:01;;;;;;;22.27;10.13;;;9.40;99.90;;;;;;5004224;28;20288;-84
2022/03/27 08:12:29;;;;;;;23.67;10.53;;;9.50;99.90;;;;;;4989966;28;20254;-83
2022/03/27 08:14:55;;;;;;;22.23;11.00;;;9.60;99.90;;;;;;5005677;28;20246;-83
2022/03/27 08:17:23;;;;;;;22.83;10.87;;;9.70;99.90;;;;;;5004694;28;20809;-82
2022/03/27 08:19:50;;;;;;;21.53;9.73;;;9.90;99.90;;;;;;5005597;28;20303;-83
2022/03/27 08:22:19;;;;;;;23.07;10.30;;;9.90;99.90;;;;;;5007556;28;20203;-83
2022/03/27 08:24:47;;;;;;;20.67;10.60;;;10.30;99.90;;;;;;5007561;28;20485;-82
2022/03/27 08:27:14;;;;;;;24.97;10.10;;;10.80;99.90;;;;;;4990614;28;20543;-82
2022/03/27 08:29:47;;;;;;;21.03;9.93;;;11.20;99.90;;;;;;5004586;28;20197;-83
2022/03/27 08:32:17;;;;;;;23.27;10.83;;;11.30;99.90;;;;;;5007139;28;20250;-83
2022/03/27 08:34:46;;;;;;;22.30;10.37;;;11.50;99.90;;;;;;5019739;28;20254;-84
2022/03/27 08:37:16;;;;;;;24.20;9.97;;;11.60;99.90;;;;;;5013496;28;20233;-83
2022/03/27 08:39:47;;;;;;;19.83;9.50;;;12.10;99.90;;;;;;5014730;28;20219;-83
2022/03/27 08:42:16;;;;;;;23.80;9.77;;;12.80;99.90;;;;;;5007628;28;20288;-82
2022/03/27 08:44:43;;;;;;;23.27;9.30;;;13.30;99.90;;;;;;5013604;28;20237;-82
2022/03/27 08:47:19;;;;;;;19.03;8.97;;;13.50;99.90;;;;;;5010739;28;20273;-83
2022/03/27 08:49:57;;;;;;;19.07;9.30;;;13.60;99.90;;;;;;5006818;28;20761;-82
2022/03/27 08:52:39;;;;;;;22.00;10.60;;;13.80;99.90;;;;;;5002992;28;20314;-84
2022/03/27 08:55:07;;;;;;;21.53;9.70;;;14.00;99.90;;;;;;5003817;28;20236;-84
2022/03/27 08:57:37;;;;;;;24.67;10.10;;;14.20;99.90;;;;;;4991670;28;20210;-84
2022/03/27 09:00:08;;;;;;;16.23;9.30;;;14.40;99.90;;;;;;5012819;28;20206;-83
2022/03/27 09:02:35;;;;;;;22.63;10.10;;;14.50;99.90;;;;;;5010985;28;20260;-84
2022/03/27 09:05:04;;;;;;;20.27;9.73;;;14.60;99.90;;;;;;5000353;28;20277;-84
2022/03/27 09:07:32;;;;;;;22.53;10.43;;;14.70;99.90;;;;;;5011598;28;20211;-85
2022/03/27 09:09:59;;;;;;;18.13;9.80;;;15.10;99.90;;;;;;5003564;28;20206;-86
2022/03/27 09:12:26;;;;;;;18.63;8.85;;;15.50;99.90;;;;;;5011824;28;20203;-84
2022/03/27 09:14:53;;;;;;;28.38;9.43;;;15.70;99.90;;;;;;5007873;28;20227;-83
2022/03/27 09:17:19;;;;;;;23.63;10.82;;;15.70;99.90;;;;;;5006521;28;20205;-83
2022/03/27 09:19:51;;;;;;;19.93;10.73;;;15.80;99.90;;;;;;4992059;28;20206;-83
2022/03/27 09:22:19;;;;;;;19.53;8.60;;;15.70;99.90;;;;;;5004708;28;20241;-84
2022/03/27 09:25:04;;;;;;;22.57;9.93;;;15.50;99.90;;;;;;5000882;28;20203;-82
2022/03/27 09:27:34;;;;;;;16.20;8.33;;;15.50;99.90;;;;;;5005222;28;20267;-84
2022/03/27 09:30:07;;;;;;;16.85;8.32;;;15.60;99.90;;;;;;5008695;28;20245;-83
2022/03/27 09:32:43;;;;;;;19.40;8.90;;;15.40;99.90;;;;;;4998041;28;20214;-84
2022/03/27 09:35:17;;;;;;;21.13;9.93;;;15.40;99.90;;;;;;5010488;28;20282;-85
2022/03/27 09:37:46;;;;;;;20.73;10.57;;;15.40;99.90;;;;;;5010198;28;20608;-85
2022/03/27 09:40:16;;;;;;;16.93;9.07;;;15.30;99.90;;;;;;5017509;28;20748;-87
2022/03/27 09:42:44;;;;;;;17.97;9.40;;;15.10;99.90;;;;;;5010800;28;20621;-84
2022/03/27 09:45:12;;;;;;;20.50;9.87;;;15.00;99.90;;;;;;5009020;28;20229;-83
2022/03/27 09:47:43;;;;;;;18.27;9.80;;;15.10;99.90;;;;;;5006843;28;20293;-83
2022/03/27 09:50:40;;;;;;;20.50;9.37;;;15.10;99.90;;;;;;5010675;28;20298;-84
2022/03/27 09:53:22;;;;;;;16.43;9.10;;;15.00;99.90;;;;;;4989787;28;20285;-85
2022/03/27 09:55:58;;;;;;;20.27;9.50;;;15.00;99.90;;;;;;5004189;28;20233;-83
2022/03/27 09:58:46;;;;;;;18.87;9.37;;;15.30;99.90;;;;;;5005637;28;20265;-84
2022/03/27 10:01:16;;;;;;;21.93;9.17;;;15.30;99.90;;;;;;4990786;28;20222;-83
2022/03/27 10:04:03;;;;;;;15.33;8.43;;;15.20;99.90;;;;;;5004358;28;20292;-83
2022/03/27 10:06:39;;;;;;;19.53;9.27;;;15.20;99.90;;;;;;4991994;28;20207;-85
2022/03/27 10:09:08;;;;;;;18.27;9.80;;;15.00;99.90;;;;;;5006163;28;20199;-84
2022/03/27 10:11:37;;;;;;;20.93;8.90;;;14.90;99.90;;;;;;5008817;28;20241;-82
2022/03/27 10:14:05;;;;;;;19.50;8.43;;;14.90;99.90;;;;;;5006767;28;20217;-84
2022/03/27 10:16:52;;;;;;;19.37;9.67;;;14.90;99.90;;;;;;5013409;28;20219;-85
2022/03/27 10:19:24;;;;;;;19.40;9.20;;;14.80;99.90;;;;;;5004290;28;20234;-84
2022/03/27 10:21:52;;;;;;;16.57;9.27;;;14.50;99.90;;;;;;5004391;28;20284;-83
2022/03/27 10:24:22;;;;;;;15.97;7.90;;;14.40;99.90;;;;;;4993764;28;20206;-84
2022/03/27 10:26:49;;;;;;;16.13;8.07;;;14.40;99.90;;;;;;4993638;28;20222;-85
2022/03/27 10:29:16;;;;;;;17.47;8.40;;;14.50;99.90;;;;;;5009938;28;20230;-85
2022/03/27 10:31:46;;;;;;;17.00;8.07;;;14.70;99.90;;;;;;5001905;28;20309;-83
2022/03/27 10:34:14;;;;;;;18.37;7.90;;;14.70;99.90;;;;;;5004604;28;20245;-84
2022/03/27 10:37:05;;;;;;;16.97;7.90;;;14.80;99.90;;;;;;4991630;28;20226;-83
2022/03/27 10:39:35;;;;;;;14.37;8.40;;;14.50;99.90;;;;;;5006334;28;20634;-84
2022/03/27 10:42:29;;;;;;;13.93;7.57;;;14.20;99.90;;;;;;5004613;28;20219;-85
2022/03/27 10:45:07;;;;;;;18.03;8.17;;;14.10;99.90;;;;;;5006547;28;20609;-83
2022/03/27 10:47:34;;;;;;;20.23;8.17;;;14.20;99.90;;;;;;4994881;28;20301;-83
2022/03/27 10:50:01;;;;;;;15.50;7.87;;;14.40;99.90;;;;;;5004188;28;20211;-83
2022/03/27 10:52:30;;;;;;;14.87;6.47;;;14.50;99.90;;;;;;5006225;28;20218;-83
2022/03/27 10:55:01;;;;;;;20.97;7.90;;;14.60;99.90;;;;;;5014101;28;20227;-84
2022/03/27 10:57:37;;;;;;;16.80;8.00;;;14.70;99.90;;;;;;5013330;28;20291;-83
2022/03/27 11:00:07;;;;;;;14.73;7.53;;;14.90;99.90;;;;;;5017242;28;20313;-84
2022/03/27 11:02:49;;;;;;;15.20;7.53;;;14.80;99.90;;;;;;5014631;28;20214;-85
2022/03/27 11:05:31;;;;;;;18.23;7.87;;;14.90;99.90;;;;;;4992580;28;20202;-83
2022/03/27 11:08:17;;;;;;;12.90;7.43;;;14.90;99.90;;;;;;5006303;28;20285;-83
2022/03/27 11:10:51;;;;;;;17.33;7.30;;;14.80;99.90;;;;;;5007738;28;20394;-84
2022/03/27 11:13:28;;;;;;;13.67;6.77;;;14.90;99.90;;;;;;5004863;28;20246;-84
2022/03/27 11:16:14;;;;;;;14.30;6.57;;;14.90;99.90;;;;;;5003566;28;20270;-84
2022/03/27 11:18:46;;;;;;;15.97;8.00;;;15.00;99.90;;;;;;4991905;28;20245;-84
2022/03/27 11:21:33;;;;;;;17.43;8.30;;;15.00;99.90;;;;;;5002457;28;20324;-84
2022/03/27 11:24:03;;;;;;;11.90;6.90;;;15.00;99.90;;;;;;5008362;28;20309;-85
2022/03/27 11:26:30;;;;;;;16.60;7.23;;;15.20;99.90;;;;;;5005261;28;20217;-84
2022/03/27 11:29:04;;;;;;;16.93;8.00;;;15.40;99.90;;;;;;5007038;28;20670;-84
2022/03/27 11:31:35;;;;;;;17.37;7.63;;;15.30;99.90;;;;;;4988881;28;20831;-85
2022/03/27 11:34:05;;;;;;;15.60;7.30;;;15.40;99.90;;;;;;5007364;28;20222;-84
2022/03/27 11:36:34;;;;;;;15.97;7.83;;;15.40;99.90;;;;;;5000704;28;20251;-84
2022/03/27 11:39:08;;;;;;;18.60;8.63;;;15.50;99.90;;;;;;5004778;28;20199;-85
2022/03/27 11:41:46;;;;;;;16.40;7.47;;;15.60;99.90;;;;;;4973201;28;20197;-86
2022/03/27 11:47:07;;;;;;;16.13;7.50;;;15.80;99.90;;;;;;4982706;28;20246;-84
2022/03/27 11:49:39;;;;;;;15.57;6.97;;;15.80;99.90;;;;;;4971093;28;20290;-85
2022/03/27 11:52:10;;;;;;;16.83;7.47;;;16.00;99.90;;;;;;4985567;28;20428;-85
2022/03/27 11:54:37;;;;;;;19.13;6.70;;;15.90;99.90;;;;;;4988425;28;20636;-85
2022/03/27 11:57:06;;;;;;;12.77;6.33;;;15.90;99.90;;;;;;4977921;28;20230;-85
2022/03/27 11:59:50;;;;;;;14.07;6.73;;;16.00;99.90;;;;;;4986793;28;20211;-86
2022/03/27 12:02:19;;;;;;;14.83;6.70;;;16.10;99.90;;;;;;4983576;28;20226;-85
2022/03/27 12:04:59;;;;;;;13.00;6.53;;;16.30;99.90;;;;;;4971686;28;20218;-85
2022/03/27 12:07:55;;;;;;;14.07;7.27;;;16.30;99.90;;;;;;4985848;28;20581;-85
2022/03/27 12:10:23;;;;;;;14.63;6.37;;;16.40;99.90;;;;;;4987291;28;20734;-84
2022/03/27 12:13:03;;;;;;;14.53;6.00;;;16.40;99.90;;;;;;4971645;28;20219;-86
2022/03/27 12:15:41;;;;;;;12.97;6.03;;;16.60;99.90;;;;;;4984050;28;20738;-85
2022/03/27 12:18:13;;;;;;;13.93;6.23;;;16.70;99.90;;;;;;4986261;28;20618;-86
2022/03/27 12:20:42;;;;;;;14.83;7.27;;;16.70;99.90;;;;;;4972932;28;20211;-86
2022/03/27 12:23:20;;;;;;;11.53;6.37;;;16.80;99.90;;;;;;4986492;28;20298;-84
2022/03/27 12:26:01;;;;;;;14.37;6.23;;;16.90;99.90;;;;;;4989054;28;20265;-85
2022/03/27 12:31:20;;;;;;;17.73;7.13;;;17.00;99.90;;;;;;4989738;28;20723;-86
2022/03/27 12:33:48;;;;;;;10.17;5.70;;;17.10;99.90;;;;;;4970009;28;20279;-87
2022/03/27 12:36:21;;;;;;;12.17;5.70;;;17.20;99.90;;;;;;4999695;28;20234;-83
2022/03/27 12:38:48;;;;;;;18.37;6.97;;;17.30;99.90;;;;;;4988435;28;20203;-84
2022/03/27 12:41:39;;;;;;;12.67;5.60;;;17.50;99.90;;;;;;5010255;28;20264;-85
2022/03/27 12:44:06;;;;;;;12.37;6.20;;;17.50;99.90;;;;;;4990862;28;20234;-85
2022/03/27 12:46:33;;;;;;;13.68;5.43;;;17.60;99.90;;;;;;4984063;28;20725;-85
2022/03/27 12:49:04;;;;;;;14.82;5.63;;;17.70;99.90;;;;;;5008246;28;20218;-87
2022/03/27 12:51:32;;;;;;;18.83;6.45;;;17.80;99.90;;;;;;5014165;28;20209;-84
2022/03/27 12:54:08;;;;;;;12.85;5.47;;;17.90;99.90;;;;;;4992290;28;20210;-85
2022/03/27 12:56:55;;;;;;;15.57;6.50;;;18.10;99.90;;;;;;4992350;28;20238;-86
2022/03/27 12:59:23;;;;;;;13.73;5.63;;;18.10;99.80;;;;;;5005870;28;20214;-86
2022/03/27 13:01:50;;;;;;;13.27;5.35;;;18.20;99.50;;;;;;5017370;28;20669;-86
2022/03/27 13:04:18;;;;;;;16.92;6.07;;;18.10;98.80;;;;;;5003989;28;20199;-86